Time;durP1;ratioP1;P1;durP2;ratioP2;P2;SDS_P1;SDS_P2;PMS_P1;PMS_P2;Temp;Humidity;BMP_temperature;BMP_pressure;BME280_temperature;BME280_humidity;BME280_pressure;Samples;Min_cycle;Max_cycle;Signal;HPM_P1;HPM_P2
2022/06/14 08:04:45;;;;;;;4.88;2.58;;;25.30;46.30;;;24.00;44.72;95935.28;5090098;27;20366;-47
2022/06/14 08:07:20;;;;;;;5.70;2.80;;;25.10;43.50;;;24.27;43.94;95926.75;5051397;28;20041;-43
2022/06/14 08:10:00;;;;;;;6.22;2.85;;;25.10;42.80;;;24.46;43.16;95929.66;5068456;28;20387;-45
2022/06/14 08:13:25;;;;;;;5.40;2.72;;;25.40;42.50;;;24.65;42.68;95929.81;5068303;28;20032;-43
2022/06/14 08:15:58;;;;;;;5.03;2.63;;;25.60;41.90;;;24.76;42.20;95930.13;4987408;28;20705;-44
2022/06/14 08:18:50;;;;;;;4.22;3.15;;;25.70;41.50;;;24.86;41.97;95923.38;4972416;28;20319;-44
2022/06/14 08:21:46;;;;;;;3.70;2.38;;;25.80;41.20;;;24.95;41.71;95924.00;4988051;28;20041;-46
2022/06/14 08:24:23;;;;;;;4.07;2.70;;;25.90;40.90;;;25.00;41.87;95925.69;4971099;28;20085;-43
2022/06/14 08:27:25;;;;;;;4.28;2.25;;;25.80;40.80;;;25.05;41.61;95925.44;4987715;28;20450;-45
2022/06/14 08:30:10;;;;;;;5.30;2.15;;;25.90;40.80;;;25.09;41.28;95918.13;4971906;28;20041;-47
2022/06/14 08:33:06;;;;;;;3.90;2.42;;;25.90;40.70;;;25.12;41.40;95923.69;4987630;28;20624;-44
2022/06/14 08:35:59;;;;;;;3.00;2.50;;;25.90;40.80;;;25.15;41.16;95919.50;4971898;28;20571;-42
2022/06/14 08:38:49;;;;;;;;;;;25.90;40.70;;;25.14;41.12;95924.16;4972292;28;20027;-42
2022/06/14 08:41:50;;;;;;;7.15;2.90;;;25.90;40.80;;;25.18;41.28;95918.00;4987605;28;19910;-46
2022/06/14 08:44:28;;;;;;;4.18;2.63;;;25.90;40.80;;;25.19;41.28;95914.13;4987613;28;20046;-45
2022/06/14 08:47:41;;;;;;;5.10;2.30;;;25.90;40.70;;;25.20;41.32;95910.28;5029763;28;20117;-45
2022/06/14 08:50:34;;;;;;;3.13;2.60;;;25.90;40.80;;;25.21;41.18;95909.91;5067693;28;20025;-43
2022/06/14 08:53:53;;;;;;;3.58;2.72;;;25.90;41.00;;;25.21;41.29;95912.63;5068466;28;20040;-42
2022/06/14 08:56:51;;;;;;;2.90;2.35;;;25.90;41.00;;;25.20;41.28;95905.63;5067409;28;20032;-41
2022/06/14 09:03:47;;;;;;;4.50;2.72;;;26.10;43.70;;;25.20;41.68;95910.28;5151498;27;20429;-48
2022/06/14 09:07:06;;;;;;;2.50;2.28;;;26.10;41.30;;;25.22;41.52;95916.16;5130802;28;20031;-45
2022/06/14 09:10:03;;;;;;;6.15;2.65;;;26.00;41.20;;;25.24;41.58;95919.31;5110003;28;21305;-44
2022/06/14 09:13:00;;;;;;;5.47;2.90;;;26.10;41.40;;;25.24;41.45;95911.16;5110072;28;20050;-45
2022/06/14 09:15:34;;;;;;;3.42;2.20;;;26.10;41.40;;;25.24;41.66;95916.59;5110056;28;20032;-49
2022/06/14 09:18:21;;;;;;;4.18;2.05;;;26.00;41.30;;;25.24;41.64;95914.66;5110171;28;20478;-46
2022/06/14 09:21:12;;;;;;;5.10;3.47;;;26.00;41.30;;;25.24;41.62;95920.13;5109889;28;20506;-49
2022/06/14 09:24:03;;;;;;;7.15;4.03;;;26.10;41.60;;;25.25;42.22;95918.19;5109955;28;20557;-49
2022/06/14 09:27:08;;;;;;;5.72;4.10;;;26.10;42.20;;;25.24;42.44;95911.94;5109524;28;20114;-46
2022/06/14 09:30:20;;;;;;;7.72;4.30;;;26.00;42.60;;;25.24;42.73;95911.16;5109696;28;20185;-47
2022/06/14 09:33:26;;;;;;;7.45;4.10;;;26.20;43.00;;;25.25;42.98;95915.44;5109531;28;20057;-45
2022/06/14 09:36:44;;;;;;;9.00;4.32;;;26.10;42.80;;;25.26;43.07;95906.13;5108513;28;20024;-48
2022/06/14 09:39:39;;;;;;;5.97;4.10;;;26.30;43.10;;;25.26;43.26;95901.50;5096078;28;20039;-47
2022/06/14 09:42:52;;;;;;;8.82;4.18;;;26.10;43.10;;;25.27;43.46;95902.28;5091125;28;20028;-46
2022/06/14 09:46:11;;;;;;;7.32;4.28;;;26.20;43.30;;;25.28;43.95;95896.47;5109002;28;20036;-44
2022/06/14 09:48:58;;;;;;;6.88;3.72;;;26.30;44.00;;;25.28;44.25;95890.22;5063818;28;20046;-48
2022/06/14 09:52:10;;;;;;;6.93;4.03;;;26.30;44.20;;;25.30;44.61;95893.41;5109142;28;20024;-46
2022/06/14 09:54:57;;;;;;;9.18;4.28;;;26.30;44.30;;;25.30;44.61;95888.72;5109298;28;20134;-48
2022/06/14 09:58:12;;;;;;;7.40;3.63;;;26.20;45.00;;;25.31;44.73;95889.50;5109191;28;20039;-43
2022/06/14 10:01:08;;;;;;;6.32;3.40;;;26.30;44.40;;;25.32;44.50;95889.19;5098660;28;20062;-47
2022/06/14 10:04:23;;;;;;;6.55;3.30;;;26.20;44.10;;;25.31;44.47;95873.16;5095978;28;20036;-48
2022/06/14 10:07:17;;;;;;;5.85;3.38;;;26.20;44.20;;;25.32;44.42;95878.28;5109009;28;20406;-44
2022/06/14 10:10:32;;;;;;;6.03;3.28;;;26.30;44.00;;;25.34;44.36;95875.19;5109395;28;20024;-49
2022/06/14 10:13:22;;;;;;;4.15;2.78;;;26.40;44.00;;;25.34;44.66;95867.00;5080129;28;20511;-47
2022/06/14 10:15:56;;;;;;;3.10;2.70;;;26.40;44.20;;;25.36;44.86;95870.19;5094523;28;20031;-45
2022/06/14 10:18:41;;;;;;;4.65;3.33;;;26.40;44.80;;;25.36;45.25;95868.25;5094008;28;20032;-48
2022/06/14 10:22:03;;;;;;;4.57;3.50;;;26.40;44.80;;;25.37;45.05;95866.28;5095416;28;20031;-49
2022/06/14 10:24:41;;;;;;;4.50;3.10;;;26.30;44.50;;;25.37;44.80;95858.91;5095142;28;20024;-50
2022/06/14 10:30:57;;;;;;;5.28;2.97;;;26.20;44.20;;;25.39;44.24;95861.28;5073941;28;20048;-47
2022/06/14 10:34:02;;;;;;;4.68;3.15;;;26.10;44.00;;;25.37;44.17;95861.63;5065744;28;20036;-45
2022/06/14 10:37:01;;;;;;;3.20;2.30;;;26.30;43.60;;;25.38;43.86;95856.97;5063895;28;20119;-47
2022/06/14 12:01:58;;;;;;;9.98;6.80;;;22.40;55.90;;;22.65;49.10;95809.34;4979045;27;21518;-42
2022/06/14 12:05:03;;;;;;;12.10;9.02;;;23.30;50.70;;;23.03;48.14;95806.41;4926275;28;30136;-42
2022/06/14 12:07:42;;;;;;;10.45;7.35;;;24.10;48.40;;;23.40;47.14;95797.44;4969259;28;20084;-44
2022/06/14 12:11:06;;;;;;;8.93;6.97;;;24.70;46.80;;;23.70;46.42;95796.06;4968819;28;20054;-44
2022/06/14 12:14:11;;;;;;;10.10;6.28;;;25.10;45.40;;;23.97;45.76;95793.72;4970120;28;20050;-43
2022/06/14 12:16:49;;;;;;;9.48;7.07;;;25.50;44.20;;;24.19;45.25;95793.19;4970019;28;20050;-45
2022/06/14 12:19:33;;;;;;;8.88;6.35;;;25.80;44.10;;;24.36;44.98;95791.28;4968573;28;20104;-47
2022/06/14 12:22:28;;;;;;;9.30;6.25;;;26.00;43.00;;;24.53;44.33;95790.19;4921647;28;20147;-46
2022/06/14 12:29:37;;;;;;;14.60;11.43;;;26.30;41.60;;;24.87;43.49;95789.53;4923348;29;20042;-46
2022/06/14 12:32:53;;;;;;;11.30;8.23;;;26.60;41.10;;;24.99;43.21;95780.47;4931223;29;20027;-47
2022/06/14 12:35:41;;;;;;;8.05;6.85;;;26.70;40.50;;;25.11;43.16;95777.66;4909854;29;20032;-42
2022/06/14 12:38:24;;;;;;;10.60;6.43;;;26.80;40.20;;;25.19;42.56;95781.34;4894658;29;20615;-45
2022/06/14 12:41:41;;;;;;;8.45;5.55;;;26.90;40.00;;;25.30;42.28;95776.19;4925408;29;20054;-43
2022/06/14 12:44:47;;;;;;;6.07;5.13;;;27.00;39.40;;;25.37;41.77;95768.16;4929889;29;20035;-45
2022/06/14 12:48:22;;;;;;;6.85;4.78;;;27.10;39.20;;;25.44;41.30;95771.03;4901785;28;27199;-47
2022/06/14 12:51:18;;;;;;;5.65;4.80;;;27.10;38.70;;;25.52;41.29;95763.81;4937596;29;20046;-43
2022/06/14 12:54:23;;;;;;;5.88;4.80;;;27.20;38.40;;;25.57;41.03;95753.41;4948575;29;20117;-46
2022/06/14 12:57:43;;;;;;;4.97;4.13;;;27.30;38.40;;;25.62;40.72;95752.34;4946551;28;20034;-47
2022/06/14 13:00:49;;;;;;;6.28;4.72;;;27.30;38.00;;;25.68;40.59;95752.84;4930887;28;20110;-44
2022/06/14 13:03:50;;;;;;;8.00;4.43;;;27.30;38.00;;;25.70;40.64;95751.34;4959725;28;20485;-45
2022/06/14 13:07:17;;;;;;;5.80;4.47;;;27.30;38.10;;;25.75;40.76;95744.81;4946221;29;20039;-43
2022/06/14 13:10:29;;;;;;;6.03;4.82;;;27.30;38.40;;;25.78;40.34;95749.56;4918080;28;21339;-44
2022/06/14 13:13:22;;;;;;;6.90;5.25;;;27.40;38.20;;;25.81;40.45;95743.41;4935427;29;20031;-46
2022/06/14 13:16:51;;;;;;;4.15;3.75;;;27.40;38.00;;;25.83;40.17;95738.38;4936992;29;20511;-43
2022/06/14 13:19:43;;;;;;;4.80;4.00;;;27.40;37.70;;;25.85;39.91;95738.81;4920073;28;20047;-43
2022/06/14 13:22:30;;;;;;;5.00;4.13;;;27.50;37.40;;;25.87;39.52;95725.59;4916557;29;20020;-47
2022/06/14 13:25:41;;;;;;;5.63;4.32;;;27.20;37.40;;;25.90;39.53;95738.53;4850994;28;24854;-43
2022/06/14 13:28:45;;;;;;;18.77;13.88;;;27.40;37.40;;;25.91;39.75;95725.66;4877782;28;66506;-43
2022/06/14 13:32:07;;;;;;;12.73;9.75;;;27.40;37.40;;;25.94;39.47;95731.19;4936764;29;20023;-43
2022/06/14 13:35:45;;;;;;;9.70;6.68;;;27.30;37.30;;;25.95;39.19;95723.78;4935521;29;20050;-44
2022/06/14 13:38:25;;;;;;;7.32;6.15;;;27.30;37.20;;;25.97;38.94;95729.69;4935305;29;20023;-48
2022/06/14 13:41:24;;;;;;;7.63;6.03;;;27.30;37.00;;;26.00;38.84;95718.06;4935191;29;20150;-43
2022/06/14 13:44:22;;;;;;;7.07;5.45;;;27.50;36.80;;;26.00;38.57;95718.84;4936263;29;20025;-46
2022/06/14 13:47:01;;;;;;;6.78;4.88;;;27.50;36.70;;;26.02;38.57;95710.31;4934793;28;20042;-44
2022/06/14 13:50:37;;;;;;;5.28;4.72;;;27.40;36.60;;;26.05;38.20;95709.59;4935164;29;20023;-48
2022/06/14 13:53:26;;;;;;;5.53;4.28;;;27.50;36.60;;;26.05;38.26;95704.91;4933220;29;20113;-45
2022/06/14 13:56:11;;;;;;;5.43;4.30;;;27.50;36.30;;;26.07;38.14;95707.25;4936336;29;20038;-43
2022/06/14 13:59:23;;;;;;;4.65;3.90;;;27.50;36.40;;;26.08;38.20;95703.41;4930911;29;20459;-47
2022/06/14 14:02:39;;;;;;;4.32;3.78;;;27.60;36.40;;;26.10;37.95;95698.34;4935582;29;20050;-49
2022/06/14 14:05:48;;;;;;;4.72;4.03;;;27.50;36.40;;;26.11;37.97;95694.50;4934749;28;20101;-44
2022/06/14 14:08:55;;;;;;;4.70;3.75;;;27.60;36.30;;;26.14;38.27;95695.72;4935323;28;20031;-45
2022/06/14 14:12:11;;;;;;;6.07;3.58;;;27.50;36.20;;;26.14;38.43;95690.25;4950410;28;20027;-47
2022/06/14 14:15:43;;;;;;;4.68;3.78;;;27.60;36.40;;;26.15;38.31;95687.16;4934683;29;20037;-47
2022/06/14 14:19:09;;;;;;;5.82;4.28;;;27.70;36.60;;;26.16;38.48;95687.94;4935308;29;20031;-45
2022/06/14 14:22:07;;;;;;;13.35;4.95;;;27.50;37.40;;;26.18;38.87;95682.91;4934326;29;20078;-48
2022/06/14 14:25:37;;;;;;;6.68;4.57;;;27.50;37.70;;;26.19;38.67;95681.75;4935140;29;20031;-50
2022/06/14 14:29:10;;;;;;;6.90;4.20;;;27.40;37.60;;;26.20;38.71;95678.69;4895096;29;20031;-47
2022/06/14 14:32:07;;;;;;;8.45;4.05;;;27.40;37.60;;;26.21;38.82;95676.72;4921155;28;20060;-50
2022/06/14 14:35:18;;;;;;;5.70;4.30;;;27.50;37.70;;;26.21;38.74;95680.25;4935293;29;20038;-47
2022/06/14 14:38:16;;;;;;;8.57;4.18;;;27.50;37.60;;;26.23;38.88;95677.13;4934032;29;20513;-51
2022/06/14 14:43:50;;;;;;;5.72;3.95;;;27.50;37.70;;;26.25;38.89;95672.13;4934183;29;20022;-48
2022/06/14 14:47:25;;;;;;;4.05;3.50;;;27.50;37.70;;;26.25;38.91;95677.56;4934940;29;20122;-48
2022/06/14 14:50:33;;;;;;;4.78;3.65;;;27.50;37.70;;;26.26;38.71;95669.03;4929971;29;20486;-50
2022/06/14 14:53:41;;;;;;;5.88;3.47;;;27.50;38.30;;;26.26;39.62;95674.50;4934482;29;20067;-48
2022/06/14 14:56:24;;;;;;;7.80;3.40;;;27.50;39.20;;;26.30;39.03;95671.81;4951153;28;20054;-50
2022/06/14 14:59:20;;;;;;;6.80;4.15;;;27.60;38.20;;;26.34;38.68;95667.19;4952088;28;20055;-47
2022/06/14 15:05:52;;;;;;;8.23;3.72;;;27.90;37.60;;;26.39;38.56;95666.91;4939754;29;20081;-46
2022/06/14 15:09:00;;;;;;;5.25;3.22;;;28.00;37.40;;;26.41;38.66;95656.41;4939389;29;20066;-46
2022/06/14 15:11:29;;;;;;;8.52;4.05;;;28.20;37.30;;;26.43;38.53;95659.56;4939198;29;20033;-45
2022/06/14 15:13:59;;;;;;;4.97;3.50;;;28.20;37.20;;;26.45;38.79;95656.44;4938656;29;20114;-47
2022/06/14 15:16:44;;;;;;;9.65;3.05;;;28.30;37.20;;;26.47;38.71;95654.94;4939934;29;20037;-49
2022/06/14 15:22:34;;;;;;;6.25;3.50;;;28.40;37.10;;;26.51;38.73;95658.56;4934889;29;20037;-44
2022/06/14 15:25:28;;;;;;;4.30;3.45;;;28.40;37.00;;;26.53;38.66;95661.69;4932134;29;20505;-43
2022/06/14 15:28:18;;;;;;;4.38;2.83;;;28.50;37.10;;;26.56;38.55;95662.91;4914074;28;20042;-43
2022/06/14 15:30:58;;;;;;;5.32;3.70;;;28.50;37.00;;;26.58;38.70;95657.88;4932724;29;20121;-43
2022/06/14 15:33:40;;;;;;;4.65;2.85;;;28.50;36.90;;;26.59;38.55;95654.00;4933876;29;20023;-43
2022/06/14 15:36:36;;;;;;;5.30;3.37;;;28.50;36.90;;;26.60;38.41;95661.03;4933096;29;20069;-42
2022/06/14 15:39:25;;;;;;;4.95;3.20;;;28.60;36.90;;;26.62;38.54;95652.47;4932960;29;20306;-43
2022/06/14 15:41:58;;;;;;;7.47;3.45;;;28.60;36.80;;;26.63;38.41;95649.38;4948317;28;20474;-46
2022/06/14 15:44:30;;;;;;;;;;;28.60;36.70;;;26.65;38.28;95646.28;4914918;29;20058;-43
2022/06/14 15:47:09;;;;;;;4.72;2.78;;;28.60;36.70;;;26.66;38.38;95642.38;4947229;28;20005;-45
2022/06/14 15:49:51;;;;;;;4.63;2.90;;;28.60;36.60;;;26.66;38.30;95634.19;4932779;29;20023;-46
2022/06/14 15:52:32;;;;;;;4.95;3.10;;;28.60;36.50;;;26.67;38.53;95636.56;4932605;29;20042;-48
2022/06/14 15:55:14;;;;;;;4.60;2.70;;;28.70;36.60;;;26.69;38.50;95634.25;4931591;29;20067;-45
2022/06/14 15:58:21;;;;;;;4.90;3.47;;;28.70;36.60;;;26.72;38.84;95635.47;4945005;28;20035;-46
2022/06/14 16:01:05;;;;;;;4.03;3.13;;;28.70;37.10;;;26.73;38.91;95637.03;4931111;29;20138;-44
2022/06/14 16:04:06;;;;;;;4.78;3.33;;;28.70;37.30;;;26.75;39.03;95640.97;4928560;29;20026;-47
2022/06/14 16:06:44;;;;;;;4.47;3.15;;;28.70;37.30;;;26.75;39.01;95640.97;4932138;29;20030;-49
2022/06/14 16:09:39;;;;;;;5.05;3.35;;;28.70;37.30;;;26.77;38.98;95633.22;4932489;29;20069;-45
2022/06/14 16:12:38;;;;;;;3.08;2.78;;;28.80;37.30;;;26.77;38.89;95635.94;4930124;29;20117;-43
2022/06/14 16:15:41;;;;;;;5.97;2.92;;;28.80;37.30;;;26.79;38.97;95632.03;4923272;29;20027;-45
2022/06/14 16:18:27;;;;;;;4.10;3.05;;;28.70;37.20;;;26.79;38.82;95629.31;4929633;29;20130;-43
2022/06/14 16:21:50;;;;;;;3.53;2.40;;;28.70;37.80;;;26.80;38.93;95628.16;4925511;29;20134;-45
2022/06/14 16:24:19;;;;;;;2.97;2.45;;;28.70;37.10;;;26.81;38.96;95630.53;4915518;29;20039;-44
2022/06/14 16:27:22;;;;;;;5.32;2.92;;;28.70;37.10;;;26.81;38.83;95627.00;4929451;29;20035;-44
2022/06/14 16:30:15;;;;;;;;;;;28.80;37.10;;;26.82;38.79;95620.38;4930831;29;20038;-45
2022/06/14 16:33:10;;;;;;;5.30;2.85;;;28.70;37.00;;;26.83;38.75;95624.69;4945269;29;19918;-44
2022/06/14 16:36:07;;;;;;;3.20;2.88;;;28.80;37.00;;;26.82;38.79;95621.16;4930863;29;20494;-44
2022/06/14 16:39:30;;;;;;;3.92;2.78;;;28.70;36.90;;;26.82;38.65;95623.09;4946264;29;20039;-45
2022/06/14 16:42:26;;;;;;;6.05;2.53;;;28.80;36.90;;;26.82;38.73;95628.56;4930119;29;20037;-45
2022/06/14 16:45:38;;;;;;;3.83;2.75;;;28.80;36.90;;;26.82;38.69;95625.84;4929250;29;20015;-45
2022/06/14 16:48:44;;;;;;;3.08;2.63;;;28.80;36.80;;;26.83;38.52;95627.44;4934619;28;20041;-43
2022/06/14 16:51:57;;;;;;;4.45;2.53;;;28.80;36.80;;;26.83;38.65;95619.25;4948382;28;20026;-44
2022/06/14 16:55:10;;;;;;;4.67;2.50;;;28.80;36.80;;;26.84;38.49;95612.59;4933811;29;20031;-44
2022/06/14 16:58:19;;;;;;;4.05;2.85;;;28.80;36.70;;;26.84;38.44;95620.81;4933775;29;20039;-45
2022/06/14 17:01:01;;;;;;;4.45;2.90;;;28.80;36.70;;;26.83;38.30;95609.09;4935045;28;20145;-47
2022/06/14 17:04:11;;;;;;;3.88;2.88;;;28.80;36.60;;;26.83;38.24;95603.63;4933084;29;20557;-45
2022/06/14 17:07:24;;;;;;;3.47;2.53;;;28.80;36.50;;;26.83;38.19;95598.16;4934202;29;20035;-46
2022/06/14 17:09:56;;;;;;;3.83;2.47;;;28.80;36.50;;;26.84;38.10;95607.94;4935111;29;20089;-48
2022/06/14 17:13:25;;;;;;;3.95;2.78;;;28.80;36.40;;;26.83;38.08;95600.91;4934333;29;20027;-47
2022/06/14 17:16:13;;;;;;;5.90;2.70;;;28.80;36.30;;;26.84;37.98;95612.59;4926426;29;20035;-45
2022/06/14 17:18:45;;;;;;;3.33;2.60;;;28.80;36.30;;;26.84;37.79;95607.94;4934953;29;20070;-47
2022/06/14 17:21:59;;;;;;;3.13;2.40;;;28.80;36.20;;;26.85;37.75;95608.72;4933752;29;20042;-45
2022/06/14 17:30:07;;;;;;;3.10;2.10;;;28.80;36.10;;;26.84;37.65;95604.41;4929866;29;20384;-45
2022/06/14 17:31:02;;;;;;;2.20;1.92;;;28.80;36.00;;;26.84;37.66;95609.88;4934116;29;20033;-47
2022/06/14 17:33:43;;;;;;;2.72;2.28;;;28.80;36.00;;;26.84;37.81;95610.66;4935421;28;20050;-48
2022/06/14 17:36:45;;;;;;;2.60;2.40;;;28.80;36.00;;;26.84;37.67;95616.13;4935334;29;20138;-45
2022/06/14 17:40:04;;;;;;;3.33;2.30;;;28.80;35.90;;;26.85;37.83;95611.44;4915987;29;20035;-43
2022/06/14 17:42:48;;;;;;;2.45;2.25;;;28.80;36.00;;;26.83;38.06;95611.81;4920671;29;20426;-46
2022/06/14 17:45:33;;;;;;;2.40;1.85;;;28.80;36.00;;;26.84;37.81;95607.94;4935208;29;20046;-45
